createdAt,value
2019-01-14T00:01:34.508Z,99.90
2019-01-14T00:04:04.963Z,99.90
2019-01-14T00:06:35.250Z,99.90
2019-01-14T00:09:08.779Z,99.90
2019-01-14T00:11:39.063Z,99.90
2019-01-14T00:14:09.356Z,99.90
2019-01-14T00:16:39.450Z,99.90
2019-01-14T00:19:09.795Z,99.90
2019-01-14T00:21:40.090Z,99.90
2019-01-14T00:24:10.359Z,99.90
2019-01-14T00:26:40.565Z,99.90
2019-01-14T00:29:10.844Z,99.90
2019-01-14T00:31:41.148Z,99.90
2019-01-14T00:34:11.650Z,99.90
2019-01-14T00:36:42.132Z,99.90
2019-01-14T00:39:12.488Z,99.90
2019-01-14T00:41:42.724Z,99.90
2019-01-14T00:44:13.036Z,99.90
2019-01-14T00:46:43.428Z,99.90
2019-01-14T00:49:13.673Z,99.90
2019-01-14T00:51:43.993Z,99.90
2019-01-14T00:54:14.347Z,99.90
2019-01-14T00:56:44.546Z,99.90
2019-01-14T00:59:14.792Z,99.90
2019-01-14T01:01:45.034Z,99.90
2019-01-14T01:04:15.357Z,99.90
2019-01-14T01:06:47.696Z,99.90
2019-01-14T01:09:18.329Z,99.90
2019-01-14T01:11:49.299Z,99.90
2019-01-14T01:14:19.740Z,99.90
2019-01-14T01:16:50.026Z,99.90
2019-01-14T01:19:20.400Z,99.90
2019-01-14T01:21:50.727Z,99.90
2019-01-14T01:24:21.135Z,99.90
2019-01-14T01:26:51.330Z,99.90
2019-01-14T01:29:21.578Z,99.90
2019-01-14T01:31:53.034Z,99.90
2019-01-14T01:34:23.335Z,99.90
2019-01-14T01:36:53.612Z,99.90
2019-01-14T01:39:24.054Z,99.90
2019-01-14T01:41:54.264Z,99.90
2019-01-14T01:44:24.482Z,99.90
2019-01-14T01:46:54.715Z,99.90
2019-01-14T01:49:27.475Z,99.90
2019-01-14T01:51:57.978Z,99.90
2019-01-14T01:54:30.043Z,99.90
2019-01-14T01:57:01.914Z,99.90
2019-01-14T01:59:32.156Z,99.90
2019-01-14T02:02:05.220Z,99.90
2019-01-14T02:04:35.777Z,99.90
2019-01-14T02:07:06.178Z,99.90
2019-01-14T02:09:36.787Z,99.90
2019-01-14T02:12:09.211Z,99.90
2019-01-14T02:14:39.705Z,99.90
2019-01-14T02:17:10.355Z,99.90
2019-01-14T02:19:40.802Z,99.90
2019-01-14T02:22:11.110Z,99.90
2019-01-14T02:24:42.434Z,99.90
2019-01-14T02:27:12.719Z,99.90
2019-01-14T02:29:42.943Z,99.90
2019-01-14T02:32:13.151Z,99.90
2019-01-14T02:34:43.395Z,99.90
2019-01-14T02:37:13.684Z,99.90
2019-01-14T02:39:43.918Z,99.90
2019-01-14T02:42:14.200Z,99.90
2019-01-14T02:44:44.512Z,99.90
2019-01-14T02:47:14.757Z,99.90
2019-01-14T02:49:45.075Z,99.90
2019-01-14T02:52:15.432Z,99.90
2019-01-14T02:54:45.634Z,99.90
2019-01-14T02:57:15.915Z,99.90
2019-01-14T02:59:46.199Z,99.90
2019-01-14T03:02:16.413Z,99.90
2019-01-14T03:04:46.653Z,99.90
2019-01-14T03:07:16.890Z,99.90
2019-01-14T03:09:47.146Z,99.90
2019-01-14T03:12:17.560Z,99.90
2019-01-14T03:14:47.649Z,99.90
2019-01-14T03:17:17.872Z,99.90
2019-01-14T03:19:48.136Z,99.90
2019-01-14T03:22:18.393Z,99.90
2019-01-14T03:24:48.612Z,99.90
2019-01-14T03:27:19.883Z,99.90
2019-01-14T03:29:50.037Z,99.90
2019-01-14T03:32:20.313Z,99.90
2019-01-14T03:34:51.657Z,99.90
2019-01-14T03:37:21.949Z,99.90
2019-01-14T03:39:52.202Z,99.90
2019-01-14T03:42:22.674Z,99.90
2019-01-14T03:44:52.919Z,99.90
2019-01-14T03:47:23.218Z,99.90
2019-01-14T03:49:53.558Z,99.90
2019-01-14T03:52:23.827Z,99.90
2019-01-14T03:54:54.023Z,99.90
2019-01-14T03:57:24.347Z,99.90
2019-01-14T03:59:54.594Z,99.90
2019-01-14T04:02:24.766Z,99.90
2019-01-14T04:04:55.060Z,99.90
2019-01-14T04:07:25.379Z,99.90
2019-01-14T04:09:55.692Z,99.90
2019-01-14T04:12:25.933Z,99.90
2019-01-14T04:14:57.624Z,99.90
2019-01-14T04:17:27.993Z,99.90
2019-01-14T04:19:58.346Z,99.90
2019-01-14T04:22:28.600Z,99.90
2019-01-14T04:24:58.838Z,99.90
2019-01-14T04:27:29.150Z,99.90
2019-01-14T04:30:00.405Z,99.90
2019-01-14T04:32:30.633Z,99.90
2019-01-14T04:35:00.911Z,99.90
2019-01-14T04:37:31.173Z,99.90
2019-01-14T04:40:01.386Z,99.90
2019-01-14T04:42:31.716Z,99.90
2019-01-14T04:45:01.936Z,99.90
2019-01-14T04:47:32.155Z,99.90
2019-01-14T04:50:02.367Z,99.90
2019-01-14T04:52:32.531Z,99.90
2019-01-14T04:55:02.782Z,99.90
2019-01-14T04:57:33.099Z,99.90
2019-01-14T05:00:03.397Z,99.90
2019-01-14T05:02:33.508Z,99.90
2019-01-14T05:05:03.762Z,99.90
2019-01-14T05:07:34.038Z,99.90
2019-01-14T05:10:04.844Z,99.90
2019-01-14T05:12:35.177Z,99.90
2019-01-14T05:15:06.229Z,99.90
2019-01-14T05:17:36.642Z,99.90
2019-01-14T05:20:08.494Z,99.90
2019-01-14T05:22:38.847Z,99.90
2019-01-14T05:25:09.456Z,99.90
2019-01-14T05:27:39.745Z,99.90
2019-01-14T05:30:10.895Z,99.90
2019-01-14T05:32:42.892Z,99.90
2019-01-14T05:35:13.585Z,99.90
2019-01-14T05:37:43.836Z,99.90
2019-01-14T05:40:16.238Z,99.90
2019-01-14T05:42:46.591Z,99.90
2019-01-14T05:45:16.985Z,99.90
2019-01-14T05:47:47.179Z,99.90
2019-01-14T05:50:17.472Z,99.90
2019-01-14T05:52:48.022Z,99.90
2019-01-14T05:55:18.391Z,99.90
2019-01-14T05:57:48.727Z,99.90
2019-01-14T06:00:22.009Z,99.90
2019-01-14T06:02:52.553Z,99.90
2019-01-14T06:05:22.884Z,99.90
2019-01-14T06:07:53.178Z,99.90
2019-01-14T06:10:23.314Z,99.90
2019-01-14T06:12:53.474Z,99.90
2019-01-14T06:15:23.731Z,99.90
2019-01-14T06:17:54.038Z,99.90
2019-01-14T06:20:26.958Z,99.90
2019-01-14T06:22:57.222Z,99.90
2019-01-14T06:25:27.600Z,99.90
2019-01-14T06:27:57.784Z,99.90
2019-01-14T06:30:29.333Z,99.90
2019-01-14T06:33:00.693Z,99.90
2019-01-14T06:35:31.221Z,99.90
2019-01-14T06:38:01.714Z,99.90
2019-01-14T06:40:32.004Z,99.90
2019-01-14T06:43:02.227Z,99.90
2019-01-14T06:45:32.687Z,99.90
2019-01-14T06:48:02.933Z,99.90
2019-01-14T06:50:33.201Z,99.90
2019-01-14T06:53:03.349Z,99.90
2019-01-14T06:55:33.675Z,99.90
2019-01-14T06:58:04.107Z,99.90
2019-01-14T07:00:34.423Z,99.90
2019-01-14T07:03:04.966Z,99.90
2019-01-14T07:05:35.221Z,99.90
2019-01-14T07:08:05.616Z,99.90
2019-01-14T07:10:35.830Z,99.90
2019-01-14T07:13:06.291Z,99.90
2019-01-14T07:15:36.672Z,99.90
2019-01-14T07:18:06.963Z,99.90
2019-01-14T07:20:37.142Z,99.90
2019-01-14T07:23:08.343Z,99.90
2019-01-14T07:25:38.786Z,99.90
2019-01-14T07:28:09.018Z,99.90
2019-01-14T07:30:39.338Z,99.90
2019-01-14T07:33:09.617Z,99.90
2019-01-14T07:35:40.837Z,99.90
2019-01-14T07:38:11.534Z,99.90
2019-01-14T07:40:41.925Z,99.90
2019-01-14T07:43:12.129Z,99.90
2019-01-14T07:45:42.401Z,99.90
2019-01-14T07:48:12.651Z,99.90
2019-01-14T07:50:42.890Z,99.90
2019-01-14T07:53:12.893Z,99.10
2019-01-14T07:55:42.926Z,98.50
2019-01-14T07:58:12.852Z,98.30
2019-01-14T08:00:42.935Z,98.40
2019-01-14T08:03:12.866Z,98.70
2019-01-14T08:05:42.796Z,98.50
2019-01-14T08:08:14.203Z,98.70
2019-01-14T08:10:44.807Z,98.70
2019-01-14T08:13:14.745Z,98.50
2019-01-14T08:15:44.793Z,98.00
2019-01-14T08:18:15.017Z,98.30
2019-01-14T08:20:45.207Z,98.60
2019-01-14T08:23:15.210Z,98.10
2019-01-14T08:25:45.122Z,98.20
2019-01-14T08:28:15.334Z,98.10
2019-01-14T08:30:45.447Z,97.40
2019-01-14T08:33:15.477Z,96.50
2019-01-14T08:35:45.417Z,95.50
2019-01-14T08:38:21.187Z,95.50
2019-01-14T08:40:48.701Z,95.10
2019-01-14T08:43:18.733Z,94.30
2019-01-14T08:45:48.953Z,94.30
2019-01-14T08:48:18.886Z,93.20
2019-01-14T08:50:48.874Z,94.30
2019-01-14T08:53:18.788Z,94.10
2019-01-14T08:55:48.800Z,94.80
2019-01-14T08:58:18.792Z,95.10
2019-01-14T09:00:49.017Z,94.60
2019-01-14T09:03:18.952Z,94.40
2019-01-14T09:05:48.959Z,96.00
2019-01-14T09:08:18.921Z,94.20
2019-01-14T09:10:49.081Z,94.40
2019-01-14T09:13:19.121Z,94.50
2019-01-14T09:15:49.146Z,94.00
2019-01-14T09:18:19.061Z,93.50
2019-01-14T09:20:49.273Z,93.00
2019-01-14T09:23:19.521Z,92.70
2019-01-14T09:25:53.710Z,92.10
2019-01-14T09:28:21.795Z,92.20
2019-01-14T09:30:51.701Z,92.90
2019-01-14T09:33:21.748Z,91.30
2019-01-14T09:35:51.756Z,89.20
2019-01-14T09:38:21.706Z,90.80
2019-01-14T09:40:52.602Z,87.10
2019-01-14T09:43:22.586Z,84.40
2019-01-14T09:45:52.714Z,73.50
2019-01-14T09:48:23.004Z,62.60
2019-01-14T09:50:53.140Z,59.90
2019-01-14T09:53:25.212Z,58.60
2019-01-14T09:55:56.072Z,59.20
2019-01-14T09:58:27.299Z,57.30
2019-01-14T10:00:59.482Z,56.30
2019-01-14T10:03:29.835Z,55.20
2019-01-14T10:06:00.734Z,53.00
2019-01-14T10:08:32.449Z,54.10
2019-01-14T10:11:02.545Z,51.50
2019-01-14T10:13:32.465Z,51.80
2019-01-14T10:16:02.413Z,52.00
2019-01-14T10:18:32.407Z,51.70
2019-01-14T10:21:02.365Z,49.90
2019-01-14T10:23:32.605Z,51.70
2019-01-14T10:26:03.101Z,48.80
2019-01-14T10:28:33.130Z,49.70
2019-01-14T10:31:03.425Z,48.90
2019-01-14T10:33:33.669Z,48.80
2019-01-14T10:36:03.954Z,49.40
2019-01-14T10:38:34.190Z,48.70
2019-01-14T10:41:04.442Z,49.10
2019-01-14T10:43:34.816Z,48.60
2019-01-14T10:46:05.078Z,49.40
2019-01-14T10:48:35.159Z,62.20
2019-01-14T10:51:05.279Z,65.00
2019-01-14T10:53:35.225Z,65.50
2019-01-14T10:56:05.881Z,60.50
2019-01-14T10:58:36.227Z,57.30
2019-01-14T11:01:06.589Z,58.50
2019-01-14T11:03:36.925Z,57.70
2019-01-14T11:06:07.317Z,60.30
2019-01-14T11:08:37.572Z,59.90
2019-01-14T11:11:08.110Z,54.30
2019-01-14T11:13:38.138Z,53.20
2019-01-14T11:16:08.406Z,53.90
2019-01-14T11:18:47.614Z,52.90
2019-01-14T11:21:18.120Z,49.90
2019-01-14T11:23:48.247Z,50.30
2019-01-14T11:26:18.561Z,47.10
2019-01-14T11:28:48.757Z,48.40
2019-01-14T11:31:18.804Z,47.00
2019-01-14T11:33:49.200Z,47.30
2019-01-14T11:36:19.477Z,47.70
2019-01-14T11:38:51.426Z,47.80
2019-01-14T11:41:23.063Z,47.40
2019-01-14T11:43:53.094Z,45.70
2019-01-14T11:46:23.333Z,45.10
2019-01-14T11:48:53.521Z,39.20
2019-01-14T11:51:23.770Z,34.00
2019-01-14T11:53:54.058Z,33.10
2019-01-14T11:56:24.407Z,32.40
2019-01-14T11:58:54.658Z,29.10
2019-01-14T12:01:24.977Z,30.20
2019-01-14T12:03:55.426Z,29.00
2019-01-14T12:06:25.733Z,29.20
2019-01-14T12:08:56.065Z,29.00
2019-01-14T12:11:26.459Z,28.50
2019-01-14T12:13:56.773Z,28.90
2019-01-14T12:16:27.002Z,28.50
2019-01-14T12:18:57.307Z,28.50
2019-01-14T12:21:27.773Z,29.00
2019-01-14T12:23:57.962Z,28.80
2019-01-14T12:26:28.263Z,27.90
2019-01-14T12:28:58.565Z,28.60
2019-01-14T12:31:28.868Z,28.30
2019-01-14T12:33:59.132Z,28.60
2019-01-14T12:36:29.389Z,28.10
2019-01-14T12:38:59.635Z,27.30
2019-01-14T12:41:29.921Z,27.40
2019-01-14T12:44:00.153Z,28.50
2019-01-14T12:46:30.457Z,27.20
2019-01-14T12:49:00.784Z,27.30
2019-01-14T12:51:31.049Z,27.00
2019-01-14T12:54:01.507Z,27.60
2019-01-14T12:56:31.847Z,27.20
2019-01-14T12:59:01.981Z,27.80
2019-01-14T13:01:32.151Z,27.80
2019-01-14T13:04:02.239Z,27.60
2019-01-14T13:06:32.479Z,27.10
2019-01-14T13:09:03.696Z,27.40
2019-01-14T13:11:34.026Z,26.40
2019-01-14T13:14:04.285Z,27.40
2019-01-14T13:16:34.616Z,26.50
2019-01-14T13:19:05.057Z,27.30
2019-01-14T13:21:35.197Z,27.20
2019-01-14T13:24:05.419Z,27.80
2019-01-14T13:26:35.861Z,26.50
2019-01-14T13:29:06.209Z,27.30
2019-01-14T13:31:36.386Z,27.70
2019-01-14T13:34:06.803Z,27.70
2019-01-14T13:36:36.992Z,27.70
2019-01-14T13:39:12.368Z,26.90
2019-01-14T13:41:42.643Z,26.90
2019-01-14T13:44:12.849Z,27.60
2019-01-14T13:46:43.101Z,26.60
2019-01-14T13:49:13.816Z,26.90
2019-01-14T13:51:46.948Z,27.30
2019-01-14T13:54:17.960Z,27.50
2019-01-14T13:56:49.329Z,28.00
2019-01-14T13:59:20.412Z,28.10
2019-01-14T14:01:50.683Z,28.80
2019-01-14T14:04:21.027Z,28.70
2019-01-14T14:06:51.308Z,29.30
2019-01-14T14:09:21.793Z,29.80
2019-01-14T14:11:52.267Z,29.20
2019-01-14T14:14:22.455Z,30.00
2019-01-14T14:16:52.774Z,31.10
2019-01-14T14:19:23.108Z,31.00
2019-01-14T14:21:53.330Z,30.80
2019-01-14T14:24:23.622Z,29.60
2019-01-14T14:26:53.804Z,29.70
2019-01-14T14:29:24.029Z,28.50
2019-01-14T14:31:54.390Z,28.10
2019-01-14T14:34:24.624Z,28.70
2019-01-14T14:36:54.873Z,28.10
2019-01-14T14:39:25.149Z,26.70
2019-01-14T14:41:55.490Z,27.00
2019-01-14T14:44:25.693Z,26.90
2019-01-14T14:46:56.035Z,26.30
2019-01-14T14:49:26.293Z,25.90
2019-01-14T14:51:56.470Z,26.00
2019-01-14T14:54:26.769Z,26.30
2019-01-14T14:56:56.954Z,27.60
2019-01-14T14:59:27.134Z,27.90
2019-01-14T15:01:57.466Z,27.70
2019-01-14T15:04:27.736Z,26.90
2019-01-14T15:06:58.061Z,27.20
2019-01-14T15:09:31.744Z,27.10
2019-01-14T15:12:00.356Z,26.10
2019-01-14T15:14:32.337Z,26.10
2019-01-14T15:17:02.567Z,26.70
2019-01-14T15:19:32.930Z,26.30
2019-01-14T15:22:03.208Z,27.00
2019-01-14T15:24:33.439Z,26.70
2019-01-14T15:27:03.720Z,26.60
2019-01-14T15:29:33.990Z,26.80
2019-01-14T15:32:04.257Z,27.40
2019-01-14T15:34:34.608Z,27.40
2019-01-14T15:37:04.977Z,27.50
2019-01-14T15:39:35.215Z,27.40
2019-01-14T15:42:05.393Z,27.70
2019-01-14T15:44:35.620Z,28.50
2019-01-14T15:47:05.893Z,28.40
2019-01-14T15:49:36.102Z,28.70
2019-01-14T15:52:06.374Z,29.50
2019-01-14T15:54:36.618Z,29.30
2019-01-14T15:57:07.046Z,29.50
2019-01-14T15:59:37.814Z,31.20
2019-01-14T16:02:08.148Z,32.80
2019-01-14T16:04:38.458Z,33.50
2019-01-14T16:07:08.928Z,33.90
2019-01-14T16:09:39.253Z,35.20
2019-01-14T16:12:09.621Z,35.30
2019-01-14T16:14:40.102Z,35.50
2019-01-14T16:17:10.375Z,36.50
2019-01-14T16:19:40.599Z,36.10
2019-01-14T16:22:10.837Z,35.90
2019-01-14T16:24:41.016Z,35.10
2019-01-14T16:27:11.286Z,34.70
2019-01-14T16:29:41.668Z,34.00
2019-01-14T16:32:11.897Z,34.10
2019-01-14T16:34:42.103Z,34.60
2019-01-14T16:37:12.605Z,34.30
2019-01-14T16:39:42.894Z,33.70
2019-01-14T16:42:13.123Z,33.50
2019-01-14T16:44:43.679Z,35.00
2019-01-14T16:47:14.032Z,33.80
2019-01-14T16:49:44.272Z,33.60
2019-01-14T16:52:14.577Z,32.90
2019-01-14T16:54:44.808Z,33.30
2019-01-14T16:57:15.263Z,33.00
2019-01-14T16:59:45.590Z,31.90
2019-01-14T17:02:16.400Z,32.70
2019-01-14T17:04:46.498Z,31.80
2019-01-14T17:07:16.828Z,32.20
2019-01-14T17:09:47.119Z,31.30
2019-01-14T17:12:17.385Z,31.90
2019-01-14T17:14:48.097Z,31.40
2019-01-14T17:17:18.428Z,31.60
2019-01-14T17:19:48.670Z,32.70
2019-01-14T17:22:19.142Z,32.90
2019-01-14T17:24:49.366Z,32.30
2019-01-14T17:27:19.917Z,33.20
2019-01-14T17:29:50.236Z,31.00
2019-01-14T17:32:20.509Z,31.50
2019-01-14T17:34:50.866Z,31.90
2019-01-14T17:37:21.161Z,32.10
2019-01-14T17:39:51.396Z,33.70
2019-01-14T17:42:22.004Z,33.30
2019-01-14T17:44:52.282Z,33.20
2019-01-14T17:47:22.687Z,34.60
2019-01-14T17:49:52.902Z,35.00
2019-01-14T17:52:23.246Z,35.20
2019-01-14T17:54:53.509Z,35.70
2019-01-14T17:57:23.777Z,35.60
2019-01-14T17:59:54.205Z,36.00
2019-01-14T18:02:25.612Z,36.50
2019-01-14T18:04:55.844Z,36.80
2019-01-14T18:07:26.093Z,37.00
2019-01-14T18:09:56.361Z,37.10
2019-01-14T18:12:26.691Z,37.30
2019-01-14T18:14:57.089Z,37.60
2019-01-14T18:17:27.346Z,37.70
2019-01-14T18:19:57.521Z,37.60
2019-01-14T18:22:27.840Z,37.70
2019-01-14T18:24:58.101Z,37.10
2019-01-14T18:27:28.344Z,37.50
2019-01-14T18:29:58.562Z,38.10
2019-01-14T18:32:28.867Z,37.90
2019-01-14T18:34:59.220Z,38.30
2019-01-14T18:37:29.790Z,38.30
2019-01-14T18:40:01.343Z,38.40
2019-01-14T18:42:31.558Z,38.70
2019-01-14T18:45:01.894Z,38.30
2019-01-14T18:47:32.138Z,38.80
2019-01-14T18:50:02.376Z,39.00
2019-01-14T18:52:32.610Z,39.70
2019-01-14T18:55:02.721Z,39.80
2019-01-14T18:57:32.822Z,40.10
2019-01-14T19:00:03.099Z,40.50
2019-01-14T19:02:33.340Z,40.70
2019-01-14T19:05:03.794Z,41.10
2019-01-14T19:07:34.108Z,40.90
2019-01-14T19:10:05.516Z,41.80
2019-01-14T19:12:35.903Z,41.30
2019-01-14T19:15:08.865Z,41.40
2019-01-14T19:17:39.066Z,41.70
2019-01-14T19:20:12.954Z,42.10
2019-01-14T19:22:43.123Z,41.20
2019-01-14T19:25:14.128Z,41.60
2019-01-14T19:27:45.758Z,41.50
2019-01-14T19:30:17.499Z,41.60
2019-01-14T19:32:47.674Z,41.70
2019-01-14T19:35:18.162Z,42.00
2019-01-14T19:37:48.665Z,42.20
2019-01-14T19:40:20.317Z,41.90
2019-01-14T19:42:51.692Z,41.70
2019-01-14T19:45:23.255Z,41.70
2019-01-14T19:47:53.493Z,41.40
2019-01-14T19:50:25.032Z,40.70
2019-01-14T19:52:56.534Z,40.60
2019-01-14T19:55:26.734Z,40.50
2019-01-14T19:57:57.077Z,40.40
2019-01-14T20:00:29.368Z,40.30
2019-01-14T20:02:59.785Z,40.50
2019-01-14T20:05:30.169Z,40.80
2019-01-14T20:08:00.684Z,40.60
2019-01-14T20:10:30.941Z,41.20
2019-01-14T20:13:01.203Z,41.30
2019-01-14T20:15:31.553Z,41.30
2019-01-14T20:18:01.727Z,41.60
2019-01-14T20:20:31.977Z,41.50
2019-01-14T20:23:02.249Z,41.60
2019-01-14T20:25:32.495Z,41.70
2019-01-14T20:28:02.870Z,42.40
2019-01-14T20:30:32.979Z,42.20
2019-01-14T20:33:03.247Z,42.30
2019-01-14T20:35:33.644Z,42.30
2019-01-14T20:38:03.891Z,43.10
2019-01-14T20:40:34.366Z,42.90
2019-01-14T20:43:04.996Z,42.80
2019-01-14T20:45:35.264Z,43.10
2019-01-14T20:48:05.509Z,43.00
2019-01-14T20:50:35.778Z,42.90
2019-01-14T20:53:13.479Z,43.60
2019-01-14T20:55:38.157Z,43.50
2019-01-14T20:58:08.476Z,43.80
2019-01-14T21:00:38.901Z,44.20
2019-01-14T21:03:10.003Z,44.30
2019-01-14T21:05:40.377Z,45.00
2019-01-14T21:08:10.656Z,45.40
2019-01-14T21:10:40.977Z,45.40
2019-01-14T21:13:11.228Z,44.80
2019-01-14T21:15:41.542Z,45.10
2019-01-14T21:18:11.728Z,44.60
2019-01-14T21:20:42.002Z,44.70
2019-01-14T21:23:12.426Z,44.50
2019-01-14T21:25:42.694Z,44.50
2019-01-14T21:28:12.985Z,44.60
2019-01-14T21:30:44.275Z,45.20
2019-01-14T21:33:14.580Z,45.20
2019-01-14T21:35:44.906Z,45.10
2019-01-14T21:38:15.253Z,45.60
2019-01-14T21:40:45.561Z,45.80
2019-01-14T21:43:15.814Z,46.00
2019-01-14T21:45:46.082Z,46.40
2019-01-14T21:48:17.401Z,46.30
2019-01-14T21:50:47.920Z,46.20
2019-01-14T21:53:18.185Z,46.80
2019-01-14T21:55:48.422Z,47.20
2019-01-14T21:58:18.731Z,48.00
2019-01-14T22:00:48.946Z,48.20
2019-01-14T22:03:19.161Z,48.30
2019-01-14T22:05:49.468Z,48.30
2019-01-14T22:08:19.814Z,48.40
2019-01-14T22:10:50.038Z,48.70
2019-01-14T22:13:20.436Z,48.70
2019-01-14T22:15:50.745Z,49.00
2019-01-14T22:18:21.007Z,48.70
2019-01-14T22:20:51.425Z,49.10
2019-01-14T22:23:21.574Z,48.90
2019-01-14T22:25:51.808Z,49.50
2019-01-14T22:28:22.063Z,50.70
2019-01-14T22:30:52.313Z,49.50
2019-01-14T22:33:22.579Z,49.70
2019-01-14T22:35:52.853Z,50.30
2019-01-14T22:38:23.091Z,50.40
2019-01-14T22:40:53.320Z,50.90
2019-01-14T22:43:23.632Z,51.00
2019-01-14T22:45:53.865Z,51.20
2019-01-14T22:48:24.054Z,51.70
2019-01-14T22:50:54.401Z,51.70
2019-01-14T22:53:24.757Z,52.10
2019-01-14T22:55:54.957Z,52.30
2019-01-14T22:58:25.222Z,52.30
2019-01-14T23:01:16.553Z,52.00
2019-01-14T23:03:52.004Z,52.40
2019-01-14T23:06:22.318Z,52.10
2019-01-14T23:08:52.586Z,51.90
2019-01-14T23:11:22.777Z,52.30
2019-01-14T23:13:53.149Z,52.80
2019-01-14T23:16:23.413Z,53.70
2019-01-14T23:18:53.724Z,55.00
2019-01-14T23:21:23.958Z,56.10
2019-01-14T23:23:54.244Z,56.60
2019-01-14T23:26:24.514Z,57.00
2019-01-14T23:28:54.844Z,56.60
2019-01-14T23:31:25.056Z,57.10
2019-01-14T23:33:55.382Z,55.60
2019-01-14T23:36:25.759Z,53.70
2019-01-14T23:38:55.922Z,53.40
2019-01-14T23:41:26.234Z,53.00
2019-01-14T23:43:56.506Z,55.00
2019-01-14T23:46:26.735Z,56.50
2019-01-14T23:48:56.968Z,57.80
2019-01-14T23:51:27.126Z,58.80
2019-01-14T23:53:57.390Z,58.60
2019-01-14T23:56:27.793Z,60.00
2019-01-14T23:58:58.197Z,62.10
